createdAt,value
2023-02-01T00:01:11.677Z,6.30
2023-02-01T00:03:38.568Z,6.53
2023-02-01T00:06:05.626Z,7.65
2023-02-01T00:08:32.376Z,6.90
2023-02-01T00:11:04.303Z,6.27
2023-02-01T00:13:33.236Z,6.13
2023-02-01T00:16:15.445Z,5.90
2023-02-01T00:18:42.219Z,6.45
2023-02-01T00:21:09.126Z,6.47
2023-02-01T00:23:36.965Z,5.60
2023-02-01T00:26:05.540Z,7.53
2023-02-01T00:28:32.781Z,6.40
2023-02-01T00:31:02.856Z,6.10
2023-02-01T00:33:30.859Z,7.97
2023-02-01T00:36:09.448Z,5.83
2023-02-01T00:38:39.226Z,5.97
2023-02-01T00:41:13.564Z,4.87
2023-02-01T00:43:40.688Z,5.00
2023-02-01T00:46:08.122Z,5.60
2023-02-01T00:48:35.517Z,5.30
2023-02-01T00:51:03.975Z,4.93
2023-02-01T00:53:31.532Z,5.20
2023-02-01T00:55:58.676Z,4.40
2023-02-01T00:58:26.593Z,4.30
2023-02-01T01:01:16.399Z,4.87
2023-02-01T01:03:51.617Z,4.80
2023-02-01T01:06:22.128Z,4.00
2023-02-01T01:08:49.195Z,4.33
2023-02-01T01:11:19.537Z,3.37
2023-02-01T01:13:50.953Z,3.80
2023-02-01T01:16:18.968Z,3.63
2023-02-01T01:18:45.720Z,3.10
2023-02-01T01:21:15.055Z,4.47
2023-02-01T01:23:42.335Z,4.20
2023-02-01T01:26:10.902Z,4.43
2023-02-01T01:28:37.687Z,3.20
2023-02-01T01:31:04.531Z,3.63
2023-02-01T01:33:31.386Z,3.20
2023-02-01T01:35:58.073Z,2.77
2023-02-01T01:38:24.807Z,3.55
2023-02-01T01:40:51.630Z,3.10
2023-02-01T01:43:23.696Z,3.13
2023-02-01T01:45:51.543Z,3.20
2023-02-01T01:48:28.890Z,3.40
2023-02-01T01:51:07.823Z,3.20
2023-02-01T01:53:44.783Z,3.40
2023-02-01T01:56:12.571Z,3.20
2023-02-01T01:58:39.476Z,3.13
2023-02-01T02:01:06.232Z,2.90
2023-02-01T02:03:38.494Z,2.80
2023-02-01T02:06:14.644Z,3.10
2023-02-01T02:08:41.507Z,3.27
2023-02-01T02:11:08.327Z,3.50
2023-02-01T02:13:42.476Z,2.80
2023-02-01T02:16:12.542Z,2.90
2023-02-01T02:18:39.249Z,2.63
2023-02-01T02:21:51.851Z,3.20
2023-02-01T02:24:37.453Z,3.50
2023-02-01T02:27:30.175Z,3.10
2023-02-01T02:30:06.699Z,3.17
2023-02-01T02:32:48.724Z,3.53
2023-02-01T02:35:41.244Z,3.20
2023-02-01T02:38:26.298Z,3.57
2023-02-01T02:41:11.953Z,3.70
2023-02-01T02:44:02.846Z,3.70
2023-02-01T02:46:59.110Z,4.20
2023-02-01T02:50:10.901Z,5.40
2023-02-01T02:53:04.608Z,4.30
2023-02-01T02:55:33.945Z,3.83
2023-02-01T02:58:19.410Z,4.00
2023-02-01T03:01:05.640Z,4.40
2023-02-01T03:03:51.001Z,5.33
2023-02-01T03:06:19.773Z,4.60
2023-02-01T03:08:46.616Z,4.37
2023-02-01T03:11:16.993Z,4.40
2023-02-01T03:14:03.677Z,4.70
2023-02-01T03:16:34.579Z,5.00
2023-02-01T03:19:15.447Z,4.67
2023-02-01T03:21:44.335Z,4.22
2023-02-01T03:24:22.331Z,5.80
2023-02-01T03:27:06.227Z,3.90
2023-02-01T03:29:41.334Z,5.10
2023-02-01T03:32:10.305Z,4.17
2023-02-01T03:34:37.582Z,5.20
2023-02-01T03:37:13.670Z,4.40
2023-02-01T03:39:48.574Z,4.80
2023-02-01T03:42:32.319Z,4.43
2023-02-01T03:45:05.984Z,4.40
2023-02-01T03:47:39.006Z,4.73
2023-02-01T03:50:26.454Z,4.57
2023-02-01T03:53:02.839Z,4.30
2023-02-01T03:55:30.981Z,4.37
2023-02-01T03:58:08.801Z,4.03
2023-02-01T04:00:36.022Z,4.10
2023-02-01T04:03:05.306Z,4.13
2023-02-01T04:05:32.327Z,3.90
2023-02-01T04:07:59.541Z,4.17
2023-02-01T04:10:26.866Z,3.75
2023-02-01T04:12:53.738Z,3.67
2023-02-01T04:15:20.542Z,3.92
2023-02-01T04:17:47.325Z,5.40
2023-02-01T04:20:14.100Z,4.23
2023-02-01T04:22:40.916Z,3.88
2023-02-01T04:25:09.013Z,4.13
2023-02-01T04:27:36.408Z,4.40
2023-02-01T04:30:05.130Z,4.70
2023-02-01T04:32:31.937Z,4.30
2023-02-01T04:34:58.677Z,4.18
2023-02-01T04:37:25.359Z,5.67
2023-02-01T04:39:52.026Z,3.97
2023-02-01T04:42:18.671Z,3.73
2023-02-01T04:44:45.378Z,4.13
2023-02-01T04:47:12.314Z,4.80
2023-02-01T04:49:39.067Z,3.58
2023-02-01T04:52:05.983Z,3.80
2023-02-01T04:54:32.751Z,3.60
2023-02-01T04:56:59.480Z,3.75
2023-02-01T04:59:26.410Z,4.30
2023-02-01T05:01:53.088Z,4.13
2023-02-01T05:04:19.923Z,4.20
2023-02-01T05:06:47.027Z,3.50
2023-02-01T05:09:13.699Z,3.80
2023-02-01T05:11:59.097Z,4.83
2023-02-01T05:14:25.792Z,4.00
2023-02-01T05:16:52.691Z,4.00
2023-02-01T05:19:19.590Z,4.57
2023-02-01T05:21:46.387Z,2.73
2023-02-01T05:24:20.701Z,3.17
2023-02-01T05:26:48.638Z,4.97
2023-02-01T05:29:15.859Z,3.88
2023-02-01T05:31:42.930Z,3.63
2023-02-01T05:34:09.784Z,3.33
2023-02-01T05:36:36.716Z,3.70
2023-02-01T05:39:03.569Z,3.67
2023-02-01T05:41:30.299Z,4.63
2023-02-01T05:43:57.073Z,3.57
2023-02-01T05:46:23.984Z,3.73
2023-02-01T05:48:50.753Z,3.50
2023-02-01T05:51:17.498Z,3.63
2023-02-01T05:53:44.247Z,3.53
2023-02-01T05:56:10.983Z,4.07
2023-02-01T05:58:37.751Z,3.43
2023-02-01T06:01:05.168Z,3.27
2023-02-01T06:03:32.021Z,3.08
2023-02-01T06:05:58.813Z,3.50
2023-02-01T06:08:26.710Z,3.37
2023-02-01T06:11:02.775Z,3.50
2023-02-01T06:13:29.462Z,2.93
2023-02-01T06:15:58.097Z,3.93
2023-02-01T06:18:26.266Z,2.87
2023-02-01T06:20:54.802Z,3.83
2023-02-01T06:23:24.682Z,3.40
2023-02-01T06:25:53.361Z,3.67
2023-02-01T06:28:20.433Z,2.97
2023-02-01T06:30:47.275Z,4.20
2023-02-01T06:33:18.254Z,3.23
2023-02-01T06:35:45.240Z,4.20
2023-02-01T06:38:12.637Z,2.90
2023-02-01T06:40:39.955Z,3.13
2023-02-01T06:43:06.711Z,3.30
2023-02-01T06:45:33.556Z,3.47
2023-02-01T06:48:01.380Z,2.70
2023-02-01T06:50:29.100Z,3.30
2023-02-01T06:52:56.380Z,3.53
2023-02-01T06:55:23.105Z,4.00
2023-02-01T06:57:54.577Z,4.05
2023-02-01T07:00:22.672Z,3.00
2023-02-01T07:02:49.797Z,4.00
2023-02-01T07:05:16.799Z,3.20
2023-02-01T07:07:43.747Z,3.63
2023-02-01T07:10:11.327Z,3.90
2023-02-01T07:12:38.126Z,4.13
2023-02-01T07:15:05.488Z,3.30
2023-02-01T07:17:32.351Z,3.30
2023-02-01T07:20:02.575Z,3.90
2023-02-01T07:22:30.162Z,4.77
2023-02-01T07:24:56.978Z,4.68
2023-02-01T07:27:25.972Z,4.10
2023-02-01T07:29:53.399Z,3.10
2023-02-01T07:32:20.172Z,3.67
2023-02-01T07:34:46.934Z,3.53
2023-02-01T07:37:13.672Z,4.07
2023-02-01T07:39:40.352Z,4.43
2023-02-01T07:42:07.660Z,3.42
2023-02-01T07:44:34.464Z,4.30
2023-02-01T07:47:01.227Z,3.40
2023-02-01T07:49:28.029Z,3.23
2023-02-01T07:51:54.783Z,3.50
2023-02-01T07:54:21.604Z,3.50
2023-02-01T07:56:48.502Z,4.50
2023-02-01T07:59:16.174Z,3.50
2023-02-01T08:01:43.030Z,4.30
2023-02-01T08:04:12.448Z,3.60
2023-02-01T08:06:40.062Z,3.93
2023-02-01T08:09:09.132Z,3.90
2023-02-01T08:11:38.692Z,3.27
2023-02-01T08:14:06.984Z,3.43
2023-02-01T08:16:36.209Z,3.80
2023-02-01T08:19:03.327Z,3.13
2023-02-01T08:21:39.773Z,5.50
2023-02-01T08:24:09.040Z,4.00
2023-02-01T08:26:35.979Z,2.97
2023-02-01T08:29:05.781Z,3.30
2023-02-01T08:31:33.357Z,3.83
2023-02-01T08:34:03.101Z,3.03
2023-02-01T08:36:31.794Z,3.70
2023-02-01T08:38:58.883Z,4.23
2023-02-01T08:41:29.056Z,4.80
2023-02-01T08:43:57.065Z,4.23
2023-02-01T08:46:24.774Z,3.27
2023-02-01T08:48:53.492Z,3.20
2023-02-01T08:51:22.208Z,3.20
2023-02-01T08:53:49.120Z,3.70
2023-02-01T08:56:17.302Z,3.47
2023-02-01T08:58:44.062Z,3.60
2023-02-01T09:01:14.143Z,3.73
2023-02-01T09:03:41.221Z,3.33
2023-02-01T09:06:11.042Z,4.10
2023-02-01T09:08:39.106Z,3.15
2023-02-01T09:11:08.349Z,3.17
2023-02-01T09:13:36.332Z,3.13
2023-02-01T09:16:04.396Z,3.60
2023-02-01T09:18:31.783Z,5.00
2023-02-01T09:20:58.665Z,3.47
2023-02-01T09:23:25.518Z,3.87
2023-02-01T09:25:53.109Z,3.38
2023-02-01T09:28:20.226Z,3.77
2023-02-01T09:30:47.334Z,2.93
2023-02-01T09:33:14.172Z,3.65
2023-02-01T09:35:40.945Z,4.83
2023-02-01T09:38:07.652Z,4.13
2023-02-01T09:40:36.441Z,3.80
2023-02-01T09:43:41.468Z,3.60
2023-02-01T09:46:24.755Z,3.93
2023-02-01T09:48:55.957Z,3.53
2023-02-01T09:51:38.432Z,3.60
2023-02-01T09:54:10.363Z,5.10
2023-02-01T09:57:01.392Z,3.60
2023-02-01T09:59:48.499Z,3.00
2023-02-01T10:02:17.328Z,3.50
2023-02-01T10:04:44.635Z,3.83
2023-02-01T10:07:20.138Z,3.60
2023-02-01T10:10:11.123Z,3.30
2023-02-01T10:12:46.478Z,3.70
2023-02-01T10:15:30.037Z,4.30
2023-02-01T10:18:11.757Z,4.10
2023-02-01T10:20:57.322Z,3.30
2023-02-01T10:24:21.731Z,3.42
2023-02-01T10:27:03.429Z,3.80
2023-02-01T10:29:40.546Z,3.93
2023-02-01T10:32:33.005Z,3.60
2023-02-01T10:35:10.965Z,3.33
2023-02-01T10:37:37.892Z,3.17
2023-02-01T10:40:23.426Z,3.50
2023-02-01T10:42:53.045Z,3.73
2023-02-01T10:45:26.075Z,3.40
2023-02-01T10:47:54.728Z,2.80
2023-02-01T10:50:45.287Z,3.10
2023-02-01T10:53:39.299Z,3.80
2023-02-01T10:56:10.817Z,2.67
2023-02-01T10:58:47.897Z,2.80
2023-02-01T11:01:32.264Z,2.60
2023-02-01T11:04:01.011Z,3.40
2023-02-01T11:06:29.625Z,3.30
2023-02-01T11:09:06.720Z,3.53
2023-02-01T11:11:34.422Z,3.63
2023-02-01T11:14:11.750Z,3.27
2023-02-01T11:16:39.809Z,4.60
2023-02-01T11:19:07.649Z,3.25
2023-02-01T11:21:35.664Z,3.77
2023-02-01T11:24:05.256Z,2.90
2023-02-01T11:26:33.918Z,3.10
2023-02-01T11:29:14.260Z,2.60
2023-02-01T11:31:43.887Z,3.10
2023-02-01T11:34:16.976Z,3.33
2023-02-01T11:36:47.766Z,2.70
2023-02-01T11:39:14.399Z,3.23
2023-02-01T11:41:44.296Z,4.53
2023-02-01T11:44:23.854Z,3.07
2023-02-01T11:46:50.735Z,3.30
2023-02-01T11:49:28.365Z,3.23
2023-02-01T11:52:13.579Z,3.35
2023-02-01T11:55:07.342Z,3.70
2023-02-01T11:57:59.814Z,3.63
2023-02-01T12:00:50.722Z,3.67
2023-02-01T12:03:45.846Z,2.90
2023-02-01T12:06:37.320Z,3.80
2023-02-01T12:09:27.181Z,2.87
2023-02-01T12:12:29.762Z,3.33
2023-02-01T12:15:30.209Z,3.20
2023-02-01T12:18:30.858Z,3.30
2023-02-01T12:21:39.259Z,3.00
2023-02-01T12:24:25.726Z,3.93
2023-02-01T12:27:33.258Z,3.00
2023-02-01T12:30:36.691Z,3.00
2023-02-01T12:33:41.563Z,3.53
2023-02-01T12:36:24.465Z,3.90
2023-02-01T12:39:31.046Z,3.50
2023-02-01T12:42:18.925Z,2.87
2023-02-01T12:44:57.636Z,2.57
2023-02-01T12:47:34.063Z,2.97
2023-02-01T12:50:22.700Z,3.25
2023-02-01T12:52:52.569Z,3.70
2023-02-01T12:55:42.537Z,2.92
2023-02-01T12:58:23.879Z,2.60
2023-02-01T13:01:01.585Z,2.40
2023-02-01T13:04:12.438Z,3.28
2023-02-01T13:06:46.104Z,2.57
2023-02-01T13:09:46.254Z,3.50
2023-02-01T13:12:30.563Z,3.70
2023-02-01T13:15:22.398Z,3.17
2023-02-01T13:17:52.364Z,2.63
2023-02-01T13:20:32.322Z,3.65
2023-02-01T13:23:04.408Z,3.20
2023-02-01T13:25:38.854Z,3.00
2023-02-01T13:28:19.183Z,2.73
2023-02-01T13:31:07.088Z,3.07
2023-02-01T13:34:03.200Z,3.30
2023-02-01T13:36:42.663Z,3.17
2023-02-01T13:39:10.193Z,3.07
2023-02-01T13:41:54.208Z,3.27
2023-02-01T13:44:33.156Z,2.80
2023-02-01T13:47:03.377Z,2.87
2023-02-01T13:49:37.520Z,3.60
2023-02-01T13:52:04.961Z,2.90
2023-02-01T13:54:38.921Z,3.23
2023-02-01T13:57:26.646Z,3.40
2023-02-01T13:59:55.899Z,2.97
2023-02-01T14:02:41.221Z,2.80
2023-02-01T14:05:13.624Z,3.33
2023-02-01T14:08:06.497Z,4.18
2023-02-01T14:10:51.544Z,3.45
2023-02-01T14:13:39.262Z,3.30
2023-02-01T14:16:06.748Z,2.93
2023-02-01T14:18:36.941Z,2.87
2023-02-01T14:21:25.288Z,2.70
2023-02-01T14:23:54.875Z,3.00
2023-02-01T14:26:39.235Z,2.80
2023-02-01T14:29:21.359Z,4.28
2023-02-01T14:32:00.623Z,2.87
2023-02-01T14:34:32.036Z,3.00
2023-02-01T14:37:04.850Z,2.50
2023-02-01T14:39:54.457Z,3.00
2023-02-01T14:42:32.897Z,3.75
2023-02-01T14:45:18.380Z,2.23
2023-02-01T14:47:47.523Z,2.97
2023-02-01T14:50:26.427Z,2.87
2023-02-01T14:53:20.062Z,2.63
2023-02-01T14:55:49.250Z,2.50
2023-02-01T14:58:19.849Z,2.57
2023-02-01T15:00:56.267Z,2.30
2023-02-01T15:03:39.848Z,3.30
2023-02-01T15:06:24.461Z,1.93
2023-02-01T15:08:56.453Z,2.30
2023-02-01T15:11:23.200Z,2.27
2023-02-01T15:13:55.470Z,2.83
2023-02-01T15:16:25.164Z,3.10
2023-02-01T15:19:09.015Z,2.70
2023-02-01T15:21:48.521Z,2.47
2023-02-01T15:24:24.445Z,2.80
2023-02-01T15:26:53.186Z,2.80
2023-02-01T15:29:21.914Z,2.10
2023-02-01T15:31:52.611Z,2.50
2023-02-01T15:34:20.836Z,2.47
2023-02-01T15:37:02.025Z,2.63
2023-02-01T15:39:31.936Z,2.30
2023-02-01T15:42:03.249Z,2.40
2023-02-01T15:44:41.393Z,2.23
2023-02-01T15:47:20.961Z,2.13
2023-02-01T15:49:52.909Z,3.23
2023-02-01T15:52:40.774Z,2.33
2023-02-01T15:55:19.673Z,2.30
2023-02-01T15:57:47.179Z,2.20
2023-02-01T16:00:29.280Z,2.58
2023-02-01T16:03:01.370Z,1.90
2023-02-01T16:05:43.520Z,1.83
2023-02-01T16:08:25.167Z,3.50
2023-02-01T16:10:55.512Z,1.80
2023-02-01T16:13:22.822Z,2.83
2023-02-01T16:15:50.475Z,1.90
2023-02-01T16:18:18.882Z,2.90
2023-02-01T16:20:46.379Z,3.00
2023-02-01T16:23:13.661Z,1.60
2023-02-01T16:25:41.249Z,2.83
2023-02-01T16:28:09.388Z,2.23
2023-02-01T16:30:36.886Z,2.70
2023-02-01T16:33:03.997Z,2.88
2023-02-01T16:35:39.904Z,2.77
2023-02-01T16:38:14.881Z,2.75
2023-02-01T16:40:44.162Z,2.67
2023-02-01T16:43:19.558Z,2.50
2023-02-01T16:45:51.518Z,2.83
2023-02-01T16:48:36.598Z,3.40
2023-02-01T16:51:09.712Z,2.83
2023-02-01T16:53:48.259Z,2.97
2023-02-01T16:56:22.982Z,2.50
2023-02-01T16:58:49.860Z,3.10
2023-02-01T17:01:19.465Z,3.10
2023-02-01T17:03:47.013Z,2.77
2023-02-01T17:06:18.297Z,3.05
2023-02-01T17:08:55.043Z,3.37
2023-02-01T17:11:22.222Z,3.20
2023-02-01T17:13:49.420Z,3.00
2023-02-01T17:16:19.127Z,2.60
2023-02-01T17:18:57.139Z,2.73
2023-02-01T17:21:25.847Z,3.00
2023-02-01T17:23:53.729Z,2.30
2023-02-01T17:26:20.612Z,2.70
2023-02-01T17:28:47.893Z,3.00
2023-02-01T17:31:18.819Z,3.37
2023-02-01T17:33:45.904Z,2.50
2023-02-01T17:36:17.289Z,3.37
2023-02-01T17:38:50.896Z,2.80
2023-02-01T17:41:20.924Z,3.40
2023-02-01T17:43:49.419Z,3.70
2023-02-01T17:46:18.807Z,3.08
2023-02-01T17:48:45.663Z,3.00
2023-02-01T17:51:17.996Z,3.17
2023-02-01T17:53:46.051Z,2.63
2023-02-01T17:56:20.381Z,3.90
2023-02-01T17:58:48.012Z,3.37
2023-02-01T18:01:20.786Z,2.97
2023-02-01T18:03:48.076Z,2.90
2023-02-01T18:06:17.854Z,2.97
2023-02-01T18:08:45.343Z,3.75
2023-02-01T18:11:14.930Z,3.00
2023-02-01T18:13:42.316Z,3.33
2023-02-01T18:16:27.674Z,3.20
2023-02-01T18:18:55.439Z,3.20
2023-02-01T18:21:23.538Z,3.77
2023-02-01T18:23:50.467Z,3.57
2023-02-01T18:26:18.767Z,2.78
2023-02-01T18:28:45.751Z,3.10
2023-02-01T18:31:27.895Z,3.90
2023-02-01T18:33:56.847Z,3.50
2023-02-01T18:36:24.205Z,3.93
2023-02-01T18:38:51.545Z,3.30
2023-02-01T18:41:23.657Z,4.78
2023-02-01T18:43:52.626Z,3.27
2023-02-01T18:46:21.879Z,3.53
2023-02-01T18:48:49.607Z,3.30
2023-02-01T18:51:20.619Z,3.30
2023-02-01T18:53:48.670Z,3.83
2023-02-01T18:56:18.442Z,3.47
2023-02-01T18:58:45.934Z,3.38
2023-02-01T19:01:21.780Z,3.40
2023-02-01T19:03:55.185Z,3.20
2023-02-01T19:06:27.006Z,3.53
2023-02-01T19:08:56.097Z,3.00
2023-02-01T19:11:23.287Z,3.43
2023-02-01T19:13:51.667Z,3.13
2023-02-01T19:16:18.565Z,3.90
2023-02-01T19:18:50.041Z,2.90
2023-02-01T19:21:16.793Z,3.17
2023-02-01T19:23:44.110Z,3.63
2023-02-01T19:26:17.541Z,3.33
2023-02-01T19:28:47.025Z,3.00
2023-02-01T19:31:14.231Z,3.17
2023-02-01T19:33:41.222Z,3.50
2023-02-01T19:36:09.998Z,3.17
2023-02-01T19:38:39.036Z,3.33
2023-02-01T19:41:06.069Z,4.00
2023-02-01T19:43:33.106Z,3.13
2023-02-01T19:46:02.826Z,3.10
2023-02-01T19:48:31.548Z,3.30
2023-02-01T19:50:59.465Z,3.80
2023-02-01T19:53:27.988Z,3.17
2023-02-01T19:55:56.705Z,4.03
2023-02-01T19:58:24.484Z,3.17
2023-02-01T20:00:57.432Z,4.30
2023-02-01T20:03:24.511Z,3.00
2023-02-01T20:05:58.500Z,2.70
2023-02-01T20:08:25.920Z,3.03
2023-02-01T20:10:52.993Z,2.95
2023-02-01T20:13:19.813Z,3.60
2023-02-01T20:15:46.709Z,3.60
2023-02-01T20:18:13.570Z,3.38
2023-02-01T20:20:41.869Z,3.60
2023-02-01T20:23:08.994Z,3.80
2023-02-01T20:25:37.684Z,3.47
2023-02-01T20:28:04.690Z,4.30
2023-02-01T20:30:32.428Z,3.50
2023-02-01T20:32:59.387Z,3.33
2023-02-01T20:35:26.617Z,3.70
2023-02-01T20:37:54.286Z,2.83
2023-02-01T20:40:21.131Z,3.80
2023-02-01T20:42:48.200Z,3.43
2023-02-01T20:45:15.261Z,3.80
2023-02-01T20:47:43.258Z,3.30
2023-02-01T20:50:10.863Z,3.63
2023-02-01T20:52:37.748Z,2.47
2023-02-01T20:55:04.876Z,3.22
2023-02-01T20:57:31.907Z,4.30
2023-02-01T20:59:58.661Z,3.70
2023-02-01T21:02:25.576Z,3.00
2023-02-01T21:04:52.605Z,3.10
2023-02-01T21:07:19.423Z,4.50
2023-02-01T21:09:46.197Z,2.80
2023-02-01T21:12:12.941Z,3.60
2023-02-01T21:14:39.705Z,2.80
2023-02-01T21:17:06.576Z,3.47
2023-02-01T21:19:43.014Z,3.93
2023-02-01T21:22:11.736Z,3.00
2023-02-01T21:24:40.767Z,2.83
2023-02-01T21:27:08.993Z,3.73
2023-02-01T21:29:35.954Z,3.77
2023-02-01T21:32:02.863Z,4.40
2023-02-01T21:34:29.605Z,4.33
2023-02-01T21:36:56.461Z,3.58
2023-02-01T21:39:23.148Z,4.17
2023-02-01T21:42:08.866Z,3.27
2023-02-01T21:44:36.140Z,3.43
2023-02-01T21:47:03.490Z,4.17
2023-02-01T21:49:30.174Z,3.70
2023-02-01T21:51:57.492Z,3.97
2023-02-01T21:54:24.336Z,3.50
2023-02-01T21:56:51.226Z,3.57
2023-02-01T21:59:18.125Z,4.13
2023-02-01T22:01:45.200Z,4.07
2023-02-01T22:04:12.021Z,3.77
2023-02-01T22:06:45.996Z,4.32
2023-02-01T22:09:21.996Z,3.73
2023-02-01T22:11:49.853Z,4.07
2023-02-01T22:14:17.610Z,3.23
2023-02-01T22:16:44.905Z,4.43
2023-02-01T22:19:14.669Z,3.80
2023-02-01T22:21:43.248Z,3.40
2023-02-01T22:24:12.365Z,4.47
2023-02-01T22:26:40.025Z,3.73
2023-02-01T22:29:09.560Z,5.40
2023-02-01T22:31:36.442Z,4.00
2023-02-01T22:34:03.294Z,4.10
2023-02-01T22:36:30.041Z,4.00
2023-02-01T22:38:58.193Z,4.80
2023-02-01T22:41:24.889Z,3.37
2023-02-01T22:43:51.611Z,4.73
2023-02-01T22:46:22.717Z,4.53
2023-02-01T22:48:49.567Z,4.50
2023-02-01T22:51:28.381Z,3.60
2023-02-01T22:53:58.676Z,3.93
2023-02-01T22:56:35.245Z,4.10
2023-02-01T22:59:04.989Z,4.00
2023-02-01T23:01:33.352Z,3.70
2023-02-01T23:04:02.035Z,4.30
2023-02-01T23:06:29.125Z,3.88
2023-02-01T23:09:01.499Z,3.70
2023-02-01T23:11:28.834Z,4.60
2023-02-01T23:13:56.512Z,3.87
2023-02-01T23:16:23.434Z,4.00
2023-02-01T23:18:54.845Z,4.27
2023-02-01T23:21:23.560Z,3.90
2023-02-01T23:23:52.752Z,3.50
2023-02-01T23:26:20.215Z,4.23
2023-02-01T23:28:47.502Z,3.80
2023-02-01T23:31:14.835Z,3.63
2023-02-01T23:33:44.175Z,4.20
2023-02-01T23:36:15.837Z,4.70
2023-02-01T23:38:46.290Z,4.53
2023-02-01T23:41:15.174Z,5.90
2023-02-01T23:43:57.636Z,4.20
2023-02-01T23:46:27.192Z,4.27
2023-02-01T23:48:53.971Z,4.60
2023-02-01T23:51:22.208Z,3.90
2023-02-01T23:53:49.270Z,3.40
2023-02-01T23:56:28.176Z,4.63
2023-02-01T23:58:56.820Z,4.20
